sensor_id;sensor_type;location;lat;lon;timestamp;P1;P2;P0
76043;PMS7003;64740;34.694;33.088;2023-03-01T00:01:59;27.5;24.1;17
76043;PMS7003;64740;34.694;33.088;2023-03-01T00:06:17;27.8;24.9;17.3
76043;PMS7003;64740;34.694;33.088;2023-03-01T00:12:01;26.9;23.9;16.6
76043;PMS7003;64740;34.694;33.088;2023-03-01T00:16:51;27.1;25.4;17.5
76043;PMS7003;64740;34.694;33.088;2023-03-01T00:22:01;29.6;25.9;17.3
76043;PMS7003;64740;34.694;33.088;2023-03-01T00:26:18;27.2;24.9;17
76043;PMS7003;64740;34.694;33.088;2023-03-01T00:31:18;28.6;25.4;17.8
76043;PMS7003;64740;34.694;33.088;2023-03-01T00:36:59;26.3;23.8;16.5
76043;PMS7003;64740;34.694;33.088;2023-03-01T00:41:51;26.6;24.9;17.1
76043;PMS7003;64740;34.694;33.088;2023-03-01T00:47:01;27.5;25;17.2
76043;PMS7003;64740;34.694;33.088;2023-03-01T00:51:39;29.3;25.4;17.3
76043;PMS7003;64740;34.694;33.088;2023-03-01T00:56:47;25.9;23.5;17.1
76043;PMS7003;64740;34.694;33.088;2023-03-01T01:01:59;26.3;24.5;17.5
76043;PMS7003;64740;34.694;33.088;2023-03-01T01:06:51;28.7;25.7;17.2
76043;PMS7003;64740;34.694;33.088;2023-03-01T01:11:32;27.5;24.7;17.1
76043;PMS7003;64740;34.694;33.088;2023-03-01T01:16:18;30;26.9;17.4
76043;PMS7003;64740;34.694;33.088;2023-03-01T01:21:25;28.1;25.3;17.8
76043;PMS7003;64740;34.694;33.088;2023-03-01T01:26:37;23.7;20.6;12.7
76043;PMS7003;64740;34.694;33.088;2023-03-01T01:31:59;28.4;24.8;17.5
76043;PMS7003;64740;34.694;33.088;2023-03-01T01:36:52;28.2;25.1;17.5
76043;PMS7003;64740;34.694;33.088;2023-03-01T01:41:37;27.6;24.7;17
76043;PMS7003;64740;34.694;33.088;2023-03-01T01:46:20;28.2;25.7;17.8
76043;PMS7003;64740;34.694;33.088;2023-03-01T01:51:39;27.7;24.4;16.8
76043;PMS7003;64740;34.694;33.088;2023-03-01T01:57:02;26.3;24.1;16.8
76043;PMS7003;64740;34.694;33.088;2023-03-01T02:01:25;27.6;23.8;17
76043;PMS7003;64740;34.694;33.088;2023-03-01T02:06:41;26.6;24.6;16.6
76043;PMS7003;64740;34.694;33.088;2023-03-01T02:11:25;28.4;25;17.4
76043;PMS7003;64740;34.694;33.088;2023-03-01T02:16:39;28.8;25.5;17.4
76043;PMS7003;64740;34.694;33.088;2023-03-01T02:22:02;27.4;24.5;16.6
76043;PMS7003;64740;34.694;33.088;2023-03-01T02:26:52;27.9;25;17.4
76043;PMS7003;64740;34.694;33.088;2023-03-01T02:31:18;27.4;23.9;16.9
76043;PMS7003;64740;34.694;33.088;2023-03-01T02:37:03;27.2;24.4;17.3
76043;PMS7003;64740;34.694;33.088;2023-03-01T02:41:48;25.9;23.8;15.9
76043;PMS7003;64740;34.694;33.088;2023-03-01T02:46:52;25.7;23.5;16.1
76043;PMS7003;64740;34.694;33.088;2023-03-01T02:51:54;23.5;21.5;14.6
76043;PMS7003;64740;34.694;33.088;2023-03-01T02:56:39;25.9;23.8;16.7
76043;PMS7003;64740;34.694;33.088;2023-03-01T03:01:26;25.4;23.8;16.7
76043;PMS7003;64740;34.694;33.088;2023-03-01T03:06:31;26;23.3;15.9
76043;PMS7003;64740;34.694;33.088;2023-03-01T03:12:01;26.6;23.8;16.3
76043;PMS7003;64740;34.694;33.088;2023-03-01T03:16:40;25.8;22.9;16
76043;PMS7003;64740;34.694;33.088;2023-03-01T03:22:01;26.3;23;16.6
76043;PMS7003;64740;34.694;33.088;2023-03-01T03:26:17;27.1;24.4;16.9
76043;PMS7003;64740;34.694;33.088;2023-03-01T03:31:25;27.5;24.8;17.3
76043;PMS7003;64740;34.694;33.088;2023-03-01T03:37:01;23.5;21.8;15.5
76043;PMS7003;64740;34.694;33.088;2023-03-01T03:41:51;28.7;25.2;17.1
76043;PMS7003;64740;34.694;33.088;2023-03-01T03:46:39;25.7;23.3;16.4
76043;PMS7003;64740;34.694;33.088;2023-03-01T03:51:29;26.7;23.5;15.8
76043;PMS7003;64740;34.694;33.088;2023-03-01T03:56:37;26.4;24.1;16.8
76043;PMS7003;64740;34.694;33.088;2023-03-01T04:01:59;28;25.2;17.2
76043;PMS7003;64740;34.694;33.088;2023-03-01T04:06:49;26.2;24.4;16.8
76043;PMS7003;64740;34.694;33.088;2023-03-01T04:11:39;26.3;24.2;17
76043;PMS7003;64740;34.694;33.088;2023-03-01T04:16:17;26.4;24;17
76043;PMS7003;64740;34.694;33.088;2023-03-01T04:21:39;27.8;23.8;16.5
76043;PMS7003;64740;34.694;33.088;2023-03-01T04:27:01;26.3;23.9;16.4
76043;PMS7003;64740;34.694;33.088;2023-03-01T04:31:51;26.1;23.7;16.2
76043;PMS7003;64740;34.694;33.088;2023-03-01T04:36:35;27.5;24.7;16.9
76043;PMS7003;64740;34.694;33.088;2023-03-01T04:41:51;27.9;25.1;17.1
76043;PMS7003;64740;34.694;33.088;2023-03-01T04:46:37;25.5;22.8;16.2
76043;PMS7003;64740;34.694;33.088;2023-03-01T04:52:02;30.1;26.5;17.5
76043;PMS7003;64740;34.694;33.088;2023-03-01T04:56:49;27.1;23.4;15.3
76043;PMS7003;64740;34.694;33.088;2023-03-01T05:01:23;30.1;26.8;17.9
76043;PMS7003;64740;34.694;33.088;2023-03-01T05:06:37;28.4;26.3;17.6
76043;PMS7003;64740;34.694;33.088;2023-03-01T05:11:17;27.8;24.6;17.4
76043;PMS7003;64740;34.694;33.088;2023-03-01T05:16:59;27.5;24.9;17.4
76043;PMS7003;64740;34.694;33.088;2023-03-01T05:21:35;28.2;25.1;17.2
76043;PMS7003;64740;34.694;33.088;2023-03-01T05:26:57;30.4;25.5;17.2
76043;PMS7003;64740;34.694;33.088;2023-03-01T05:31:29;29.9;25.5;17.2
76043;PMS7003;64740;34.694;33.088;2023-03-01T05:36:35;28.4;25.3;17.4
76043;PMS7003;64740;34.694;33.088;2023-03-01T05:42:00;26.1;23.8;16.8
76043;PMS7003;64740;34.694;33.088;2023-03-01T05:46:51;27.1;25;17.4
76043;PMS7003;64740;34.694;33.088;2023-03-01T05:51:59;29.1;26;17.5
76043;PMS7003;64740;34.694;33.088;2023-03-01T05:56:27;27.4;24.9;17.7
76043;PMS7003;64740;34.694;33.088;2023-03-01T06:01:37;29.4;25.2;17.7
76043;PMS7003;64740;34.694;33.088;2023-03-01T06:06:59;29.5;25.2;17.1
76043;PMS7003;64740;34.694;33.088;2023-03-01T06:11:51;30.8;26.1;18
76043;PMS7003;64740;34.694;33.088;2023-03-01T06:17:01;30.1;26.6;17.7
76043;PMS7003;64740;34.694;33.088;2023-03-01T06:21:17;31.5;27.5;18.4
76043;PMS7003;64740;34.694;33.088;2023-03-01T06:26:37;31.5;27.7;18.6
76043;PMS7003;64740;34.694;33.088;2023-03-01T06:31:49;32;27.2;18.4
76043;PMS7003;64740;34.694;33.088;2023-03-01T06:36:51;30.8;26.4;18.7
76043;PMS7003;64740;34.694;33.088;2023-03-01T06:41:59;31.1;27.4;18.6
76043;PMS7003;64740;34.694;33.088;2023-03-01T06:46:17;31.1;27.9;19.2
76043;PMS7003;64740;34.694;33.088;2023-03-01T06:51:37;31.3;28.1;18.9
76043;PMS7003;64740;34.694;33.088;2023-03-01T06:56:59;29.5;25.8;17.4
76043;PMS7003;64740;34.694;33.088;2023-03-01T07:01:51;26.3;23.3;16.1
76043;PMS7003;64740;34.694;33.088;2023-03-01T07:07:03;24.8;22.5;16
76043;PMS7003;64740;34.694;33.088;2023-03-01T07:11:17;21.7;19.6;13.5
76043;PMS7003;64740;34.694;33.088;2023-03-01T07:16:31;20.7;18.2;13
76043;PMS7003;64740;34.694;33.088;2023-03-01T07:22:05;18.9;17.1;11.9
76043;PMS7003;64740;34.694;33.088;2023-03-01T07:26:55;17.7;15.6;11.2
76043;PMS7003;64740;34.694;33.088;2023-03-01T07:32:05;19.2;17.2;12.4
76043;PMS7003;64740;34.694;33.088;2023-03-01T07:36:17;18.4;16.4;11.9
76043;PMS7003;64740;34.694;33.088;2023-03-01T07:41:17;16.3;14.5;10.4
76043;PMS7003;64740;34.694;33.088;2023-03-01T07:47:05;19.1;16.9;12
76043;PMS7003;64740;34.694;33.088;2023-03-01T07:51:55;18.4;16.2;11.9
76043;PMS7003;64740;34.694;33.088;2023-03-01T07:57:05;16;15.1;11
76043;PMS7003;64740;34.694;33.088;2023-03-01T08:01:29;19;16.7;12.1
76043;PMS7003;64740;34.694;33.088;2023-03-01T08:06:35;20.6;18.3;12.9
76043;PMS7003;64740;34.694;33.088;2023-03-01T08:12:03;18.2;16.1;11.6
76043;PMS7003;64740;34.694;33.088;2023-03-01T08:16:53;19.7;17.3;12.4
76043;PMS7003;64740;34.694;33.088;2023-03-01T08:22:03;21.1;19.4;13.7
76043;PMS7003;64740;34.694;33.088;2023-03-01T08:26:27;21.1;19.7;13.9
76043;PMS7003;64740;34.694;33.088;2023-03-01T08:31:26;23.6;20;14.6
76043;PMS7003;64740;34.694;33.088;2023-03-01T08:37:05;23.8;21.4;15
76043;PMS7003;64740;34.694;33.088;2023-03-01T08:41:53;22.6;20.4;14.9
76043;PMS7003;64740;34.694;33.088;2023-03-01T08:47:05;23.8;21.6;16
76043;PMS7003;64740;34.694;33.088;2023-03-01T08:51:29;25.1;22;15.5
76043;PMS7003;64740;34.694;33.088;2023-03-01T08:56:23;25.3;22.8;16.1
76043;PMS7003;64740;34.694;33.088;2023-03-01T09:02:03;25.8;22.8;15.6
76043;PMS7003;64740;34.694;33.088;2023-03-01T09:06:53;25.6;23.8;16.9
76043;PMS7003;64740;34.694;33.088;2023-03-01T09:12:03;28.1;25;17.6
76043;PMS7003;64740;34.694;33.088;2023-03-01T09:16:18;25.4;23.1;16.1
76043;PMS7003;64740;34.694;33.088;2023-03-01T09:21:52;26.1;23;16.3
76043;PMS7003;64740;34.694;33.088;2023-03-01T09:26:18;24.4;22;16
76043;PMS7003;64740;34.694;33.088;2023-03-01T09:31:39;20.7;18.6;12.7
76043;PMS7003;64740;34.694;33.088;2023-03-01T09:36:49;22.5;19.8;15
76043;PMS7003;64740;34.694;33.088;2023-03-01T09:41:44;22.5;20.7;14.6
76043;PMS7003;64740;34.694;33.088;2023-03-01T09:47:03;22.9;21;15.3
76043;PMS7003;64740;34.694;33.088;2023-03-01T09:51:29;25.2;21.9;15.6
76043;PMS7003;64740;34.694;33.088;2023-03-01T09:56:19;22.7;20.3;14.7
76043;PMS7003;64740;34.694;33.088;2023-03-01T10:01:50;20.8;18.9;13.5
76043;PMS7003;64740;34.694;33.088;2023-03-01T10:06:25;19.2;17.9;13.3
76043;PMS7003;64740;34.694;33.088;2023-03-01T10:11:59;20.7;18.6;13.3
76043;PMS7003;64740;34.694;33.088;2023-03-01T10:16:28;20.1;18.2;12.6
76043;PMS7003;64740;34.694;33.088;2023-03-01T10:21:43;19;17.9;12.9
76043;PMS7003;64740;34.694;33.088;2023-03-01T10:26:53;17.8;16.9;12.4
76043;PMS7003;64740;34.694;33.088;2023-03-01T10:31:18;18.6;17.2;12.8
76043;PMS7003;64740;34.694;33.088;2023-03-01T10:37:08;19.4;18;12.9
76043;PMS7003;64740;34.694;33.088;2023-03-01T10:41:17;21.1;18.5;13.6
76043;PMS7003;64740;34.694;33.088;2023-03-01T10:46:39;20.7;19.1;14.3
76043;PMS7003;64740;34.694;33.088;2023-03-01T10:51:50;22.7;20.7;15
76043;PMS7003;64740;34.694;33.088;2023-03-01T10:56:17;21.9;19.7;14
76043;PMS7003;64740;34.694;33.088;2023-03-01T11:01:49;23.9;20.6;14.5
76043;PMS7003;64740;34.694;33.088;2023-03-01T11:06:20;21.9;20.2;14.3
76043;PMS7003;64740;34.694;33.088;2023-03-01T11:11:21;21.7;19.5;13.9
76043;PMS7003;64740;34.694;33.088;2023-03-01T11:16:58;21.8;20.3;14.8
76043;PMS7003;64740;34.694;33.088;2023-03-01T11:21:17;23.1;21.1;14.6
76043;PMS7003;64740;34.694;33.088;2023-03-01T11:27:04;25.1;22.3;16.6
76043;PMS7003;64740;34.694;33.088;2023-03-01T11:31:29;25.2;22.1;15.8
76043;PMS7003;64740;34.694;33.088;2023-03-01T11:36:39;24.6;22.6;16.3
76043;PMS7003;64740;34.694;33.088;2023-03-01T11:41:52;25.1;23.1;16.1
76043;PMS7003;64740;34.694;33.088;2023-03-01T11:46:37;26;23.4;16.6
76043;PMS7003;64740;34.694;33.088;2023-03-01T11:52:02;28.4;25.7;17.7
76043;PMS7003;64740;34.694;33.088;2023-03-01T11:56:43;26.4;25.3;18.1
76043;PMS7003;64740;34.694;33.088;2023-03-01T12:01:30;27.1;25;17.6
76043;PMS7003;64740;34.694;33.088;2023-03-01T12:06:50;30.2;27.5;19
76043;PMS7003;64740;34.694;33.088;2023-03-01T12:11:28;31.4;28.8;20
76043;PMS7003;64740;34.694;33.088;2023-03-01T12:16:39;35;30.8;21.2
76043;PMS7003;64740;34.694;33.088;2023-03-01T12:22:05;36.9;31.8;21.6
76043;PMS7003;64740;34.694;33.088;2023-03-01T12:26:29;31.3;28.8;19.3
76043;PMS7003;64740;34.694;33.088;2023-03-01T12:36:24;36;31.8;21.9
76043;PMS7003;64740;34.694;33.088;2023-03-01T12:42:02;35.9;30.5;21
76043;PMS7003;64740;34.694;33.088;2023-03-01T12:46:28;35.2;31.2;21.4
76043;PMS7003;64740;34.694;33.088;2023-03-01T12:51:35;36.3;31.2;21.2
76043;PMS7003;64740;34.694;33.088;2023-03-01T12:56:49;35.6;31.8;21.6
76043;PMS7003;64740;34.694;33.088;2023-03-01T13:01:39;35.4;30.8;20.9
76043;PMS7003;64740;34.694;33.088;2023-03-01T13:07:10;36.3;31.4;21.6
76043;PMS7003;64740;34.694;33.088;2023-03-01T13:11:19;38.2;32.2;22
76043;PMS7003;64740;34.694;33.088;2023-03-01T13:16:40;34.2;30.3;20.1
76043;PMS7003;64740;34.694;33.088;2023-03-01T13:22:25;39.1;33.5;22.3
76043;PMS7003;64740;34.694;33.088;2023-03-01T13:27:08;39.5;33.9;22.4
76043;PMS7003;64740;34.694;33.088;2023-03-01T13:48:52;40.7;34.3;23.3
76043;PMS7003;64740;34.694;33.088;2023-03-01T14:09:05;40.5;34.2;23.1
76043;PMS7003;64740;34.694;33.088;2023-03-01T14:14:00;40.5;33.9;23
76043;PMS7003;64740;34.694;33.088;2023-03-01T14:19:14;38.4;32.8;21.9
76043;PMS7003;64740;34.694;33.088;2023-03-01T14:23:30;39.4;33.4;22.5
76043;PMS7003;64740;34.694;33.088;2023-03-01T14:28:38;39.2;33.2;22.8
76043;PMS7003;64740;34.694;33.088;2023-03-01T14:34:00;38.8;33.3;22.4
76043;PMS7003;64740;34.694;33.088;2023-03-01T14:38:29;40.3;34.5;23.5
76043;PMS7003;64740;34.694;33.088;2023-03-01T14:44:15;35.8;30.4;19.2
76043;PMS7003;64740;34.694;33.088;2023-03-01T14:49:03;40.3;34.1;22.3
76043;PMS7003;64740;34.694;33.088;2023-03-01T14:53:38;40.5;34.1;22.8
76043;PMS7003;64740;34.694;33.088;2023-03-01T14:59:02;41.7;34.9;23.5
76043;PMS7003;64740;34.694;33.088;2023-03-01T15:03:50;42.2;35.1;23.4
76043;PMS7003;64740;34.694;33.088;2023-03-01T15:09:14;39.7;32.1;20.3
76043;PMS7003;64740;34.694;33.088;2023-03-01T15:14:03;43.3;36;23.8
76043;PMS7003;64740;34.694;33.088;2023-03-01T15:18:28;43.8;36;23.9
76043;PMS7003;64740;34.694;33.088;2023-03-01T15:24:03;42.6;35.4;23.7
76043;PMS7003;64740;34.694;33.088;2023-03-01T15:28:42;43;35.2;23.3
76043;PMS7003;64740;34.694;33.088;2023-03-01T15:34:21;40.3;33.3;21.9
76043;PMS7003;64740;34.694;33.088;2023-03-01T15:39:05;38.9;32.9;22
76043;PMS7003;64740;34.694;33.088;2023-03-01T15:43:44;40;33.4;22.5
76043;PMS7003;64740;34.694;33.088;2023-03-01T15:49:03;40.5;33.1;22.3
76043;PMS7003;64740;34.694;33.088;2023-03-01T15:53:40;39.2;33.3;22.6
76043;PMS7003;64740;34.694;33.088;2023-03-01T15:59:12;39;32.8;22.2
76043;PMS7003;64740;34.694;33.088;2023-03-01T16:04:00;38.8;33.4;22.3
76043;PMS7003;64740;34.694;33.088;2023-03-01T16:08:40;39.2;32.9;21.4
76043;PMS7003;64740;34.694;33.088;2023-03-01T16:14:02;41.4;34.1;22.7
76043;PMS7003;64740;34.694;33.088;2023-03-01T16:18:53;38.5;33.1;22.1
76043;PMS7003;64740;34.694;33.088;2023-03-01T16:24:14;43.5;36;23.5
76043;PMS7003;64740;34.694;33.088;2023-03-01T16:29:02;45.1;36.7;23.9
76043;PMS7003;64740;34.694;33.088;2023-03-01T16:33:50;43.2;35.2;23.2
76043;PMS7003;64740;34.694;33.088;2023-03-01T16:39:02;37.9;32.1;21.7
76043;PMS7003;64740;34.694;33.088;2023-03-01T16:43:38;36.2;30.9;20.8
76043;PMS7003;64740;34.694;33.088;2023-03-01T16:49:14;34.3;30;20.5
76043;PMS7003;64740;34.694;33.088;2023-03-01T16:54:02;36.8;30.7;20.8
76043;PMS7003;64740;34.694;33.088;2023-03-01T16:58:38;37.6;31.7;21.1
76043;PMS7003;64740;34.694;33.088;2023-03-01T17:04:02;33.7;29.3;20.4
76043;PMS7003;64740;34.694;33.088;2023-03-01T17:09:02;31.5;27.6;17.5
76043;PMS7003;64740;34.694;33.088;2023-03-01T17:14:00;33.4;29.5;20
76043;PMS7003;64740;34.694;33.088;2023-03-01T17:18:52;36.6;31.2;21
76043;PMS7003;64740;34.694;33.088;2023-03-01T17:23:41;37.1;31.6;20.8
76043;PMS7003;64740;34.694;33.088;2023-03-01T17:29:04;33.4;27.4;17.3
76043;PMS7003;64740;34.694;33.088;2023-03-01T17:34:14;37.4;31.8;21.1
76043;PMS7003;64740;34.694;33.088;2023-03-01T17:39:00;36.1;31.6;20.6
76043;PMS7003;64740;34.694;33.088;2023-03-01T17:43:52;36.1;31;20.6
76043;PMS7003;64740;34.694;33.088;2023-03-01T17:48:28;36.7;31.9;21.2
76043;PMS7003;64740;34.694;33.088;2023-03-01T17:54:14;36.3;31.9;21.1
76043;PMS7003;64740;34.694;33.088;2023-03-01T17:58:40;36.9;31.9;21.5
76043;PMS7003;64740;34.694;33.088;2023-03-01T18:04:02;39.2;32.7;21.5
76043;PMS7003;64740;34.694;33.088;2023-03-01T18:08:55;38.8;31.6;20.7
76043;PMS7003;64740;34.694;33.088;2023-03-01T18:13:40;36.5;30.4;20.2
76043;PMS7003;64740;34.694;33.088;2023-03-01T18:19:16;39.1;32;21.2
76043;PMS7003;64740;34.694;33.088;2023-03-01T18:23:52;37.8;32.3;21
76043;PMS7003;64740;34.694;33.088;2023-03-01T18:29:02;39.2;33.2;22.4
76043;PMS7003;64740;34.694;33.088;2023-03-01T18:33:28;39.6;33.5;22.1
76043;PMS7003;64740;34.694;33.088;2023-03-01T18:38:42;37.7;32.2;21.5
76043;PMS7003;64740;34.694;33.088;2023-03-01T18:44:16;38;32.4;21.8
76043;PMS7003;64740;34.694;33.088;2023-03-01T18:49:13;37.3;31.9;21.1
76043;PMS7003;64740;34.694;33.088;2023-03-01T18:54:02;33.1;27.8;17.7
76043;PMS7003;64740;34.694;33.088;2023-03-01T18:58:54;40.4;33.1;21.5
76043;PMS7003;64740;34.694;33.088;2023-03-01T19:03:52;37;32.3;22
76043;PMS7003;64740;34.694;33.088;2023-03-01T19:09:14;39.6;33.2;21.4
76043;PMS7003;64740;34.694;33.088;2023-03-01T19:13:54;40.8;33.9;22.3
76043;PMS7003;64740;34.694;33.088;2023-03-01T19:19:03;37.5;31.9;21.5
76043;PMS7003;64740;34.694;33.088;2023-03-01T19:23:54;33.6;30;20.1
76043;PMS7003;64740;34.694;33.088;2023-03-01T19:28:40;34.9;30.7;20.5
76043;PMS7003;64740;34.694;33.088;2023-03-01T19:34:14;35.8;30.6;20.7
76043;PMS7003;64740;34.694;33.088;2023-03-01T19:38:38;32.6;28.9;19.2
76043;PMS7003;64740;34.694;33.088;2023-03-01T19:44:00;32.3;29.3;19.2
76043;PMS7003;64740;34.694;33.088;2023-03-01T19:48:50;30.6;27.3;17.6
76043;PMS7003;64740;34.694;33.088;2023-03-01T19:53:38;31.3;27.5;18.7
76043;PMS7003;64740;34.694;33.088;2023-03-01T19:59:14;32.5;29.7;20.2
76043;PMS7003;64740;34.694;33.088;2023-03-01T20:03:40;35.5;29.2;19.3
76043;PMS7003;64740;34.694;33.088;2023-03-01T20:08:58;34;30;19.8
76043;PMS7003;64740;34.694;33.088;2023-03-01T20:13:52;30.9;27.9;19
76043;PMS7003;64740;34.694;33.088;2023-03-01T20:18:28;31.2;27.4;18.6
76043;PMS7003;64740;34.694;33.088;2023-03-01T20:24:14;31.8;27.9;19
76043;PMS7003;64740;34.694;33.088;2023-03-01T20:28:54;30.8;27;17.8
76043;PMS7003;64740;34.694;33.088;2023-03-01T20:33:40;31.9;28;19
76043;PMS7003;64740;34.694;33.088;2023-03-01T20:38:28;30.1;27.1;18.5
76043;PMS7003;64740;34.694;33.088;2023-03-01T20:43:28;27.4;25.3;17.4
76043;PMS7003;64740;34.694;33.088;2023-03-01T20:49:14;30.5;27;18.4
76043;PMS7003;64740;34.694;33.088;2023-03-01T20:53:52;29.9;26.5;18.6
76043;PMS7003;64740;34.694;33.088;2023-03-01T20:59:02;29.4;25.9;17.5
76043;PMS7003;64740;34.694;33.088;2023-03-01T21:04:06;29.1;25.2;18
76043;PMS7003;64740;34.694;33.088;2023-03-01T21:08:38;26.4;23.6;15.8
76043;PMS7003;64740;34.694;33.088;2023-03-01T21:13:48;30;26.7;18.2
76043;PMS7003;64740;34.694;33.088;2023-03-01T21:18:42;28.8;24.7;17.1
76043;PMS7003;64740;34.694;33.088;2023-03-01T21:24:16;27.6;25.7;17.4
76043;PMS7003;64740;34.694;33.088;2023-03-01T21:29:06;27.7;25;17.5
76043;PMS7003;64740;34.694;33.088;2023-03-01T21:33:42;28.3;25.8;17.9
76043;PMS7003;64740;34.694;33.088;2023-03-01T21:38:28;27.3;24.8;17.4
76043;PMS7003;64740;34.694;33.088;2023-03-01T21:43:40;28.6;25.6;17.7
76043;PMS7003;64740;34.694;33.088;2023-03-01T21:48:30;28.4;24.6;16.9
76043;PMS7003;64740;34.694;33.088;2023-03-01T21:54:04;29;25.2;16.9
76043;PMS7003;64740;34.694;33.088;2023-03-01T21:58:40;28.3;24.7;17.3
76043;PMS7003;64740;34.694;33.088;2023-03-01T22:03:50;27.5;25.4;17.4
76043;PMS7003;64740;34.694;33.088;2023-03-01T22:08:40;27.6;25;16.9
76043;PMS7003;64740;34.694;33.088;2023-03-01T22:14:14;28.9;25.3;17.1
76043;PMS7003;64740;34.694;33.088;2023-03-01T22:19:04;25.3;22.5;15.8
76043;PMS7003;64740;34.694;33.088;2023-03-01T22:23:28;25.3;22.8;16.1
76043;PMS7003;64740;34.694;33.088;2023-03-01T22:28:48;27.2;23.8;16.7
76043;PMS7003;64740;34.694;33.088;2023-03-01T22:33:28;26.9;24.3;16.7
76043;PMS7003;64740;34.694;33.088;2023-03-01T22:39:12;24.7;21.8;14.6
76043;PMS7003;64740;34.694;33.088;2023-03-01T22:44:02;26.8;24.5;16.4
76043;PMS7003;64740;34.694;33.088;2023-03-01T22:48:40;26.6;24;16.4
76043;PMS7003;64740;34.694;33.088;2023-03-01T22:53:36;26.5;24.2;16.8
76043;PMS7003;64740;34.694;33.088;2023-03-01T22:58:38;26.2;24.2;17.1
76043;PMS7003;64740;34.694;33.088;2023-03-01T23:04:14;24.6;22.6;16.2
76043;PMS7003;64740;34.694;33.088;2023-03-01T23:09:04;28;24.5;17
76043;PMS7003;64740;34.694;33.088;2023-03-01T23:13:48;27;23.8;16
76043;PMS7003;64740;34.694;33.088;2023-03-01T23:18:48;27.1;24.5;16.7
76043;PMS7003;64740;34.694;33.088;2023-03-01T23:23:28;27;23.6;16.3
76043;PMS7003;64740;34.694;33.088;2023-03-01T23:29:14;27.5;24;15.6
76043;PMS7003;64740;34.694;33.088;2023-03-01T23:33:42;25.7;23.1;15.9
76043;PMS7003;64740;34.694;33.088;2023-03-01T23:38:48;25.1;22.4;15.4
76043;PMS7003;64740;34.694;33.088;2023-03-01T23:43:36;23.5;21.6;15.2
76043;PMS7003;64740;34.694;33.088;2023-03-01T23:48:38;27.1;24.7;16.4
76043;PMS7003;64740;34.694;33.088;2023-03-01T23:54:14;24.3;21.9;15.7
76043;PMS7003;64740;34.694;33.088;2023-03-01T23:59:05;27.4;24.7;16.5
